Time;durP1;ratioP1;P1;durP2;ratioP2;P2;SDS_P1;SDS_P2;PMS_P1;PMS_P2;Temp;Humidity;BMP_temperature;BMP_pressure;BME280_temperature;BME280_humidity;BME280_pressure;Samples;Min_cycle;Max_cycle;Signal;HPM_P1;HPM_P2
2023/10/31 00:02:59;;;;;;;2.30;2.17;;;15.40;46.60;;;;;;10397096;28;20308;-69
2023/10/31 00:08:02;;;;;;;1.80;1.70;;;15.40;47.20;;;;;;10402143;28;20951;-71
2023/10/31 00:13:06;;;;;;;1.87;1.70;;;15.40;46.60;;;;;;10395429;28;20238;-70
2023/10/31 00:18:11;;;;;;;1.67;1.57;;;15.30;46.50;;;;;;10389048;28;20230;-70
2023/10/31 00:23:14;;;;;;;1.50;1.40;;;15.30;47.40;;;;;;10394236;28;20235;-70
2023/10/31 00:28:17;;;;;;;1.20;1.20;;;15.20;46.60;;;;;;10391490;28;20229;-75
2023/10/31 00:33:22;;;;;;;1.13;1.13;;;15.20;46.80;;;;;;10390586;28;20308;-75
2023/10/31 00:38:25;;;;;;;1.30;1.27;;;15.10;47.30;;;;;;10392857;28;20221;-71
2023/10/31 00:43:28;;;;;;;1.47;1.20;;;15.10;46.70;;;;;;10396069;28;20233;-70
2023/10/31 00:48:36;;;;;;;1.40;1.30;;;15.10;46.80;;;;;;10399242;28;20596;-70
2023/10/31 00:53:39;;;;;;;1.10;1.10;;;15.00;47.20;;;;;;10392087;28;20234;-70
2023/10/31 00:58:42;;;;;;;1.10;1.10;;;15.00;47.00;;;;;;10386309;28;20820;-72
2023/10/31 01:03:47;;;;;;;1.30;1.20;;;14.90;46.90;;;;;;10394895;28;20241;-71
2023/10/31 01:08:50;;;;;;;1.10;1.10;;;14.90;47.40;;;;;;10393477;28;20712;-71
2023/10/31 01:13:53;;;;;;;1.13;1.10;;;14.80;47.00;;;;;;10391727;28;20236;-71
2023/10/31 01:18:58;;;;;;;1.50;1.40;;;14.80;47.10;;;;;;10389037;28;20290;-71
2023/10/31 01:24:01;;;;;;;1.40;1.30;;;14.70;47.60;;;;;;10389904;28;20218;-71
2023/10/31 01:29:04;;;;;;;1.80;1.70;;;14.70;47.10;;;;;;10393670;28;20222;-71
2023/10/31 01:34:09;;;;;;;1.50;1.40;;;14.70;47.30;;;;;;10387622;28;20332;-73
2023/10/31 01:39:13;;;;;;;1.60;1.50;;;14.70;47.60;;;;;;10392531;28;20750;-73
2023/10/31 01:44:16;;;;;;;1.60;1.50;;;14.70;47.10;;;;;;10390796;28;20324;-75
2023/10/31 01:49:20;;;;;;;1.50;1.40;;;14.70;47.20;;;;;;10393293;28;20240;-75
2023/10/31 01:54:24;;;;;;;1.40;1.40;;;14.60;47.60;;;;;;10392367;28;20700;-75
2023/10/31 01:59:27;;;;;;;1.10;1.10;;;14.60;47.20;;;;;;10391594;28;20235;-72
2023/10/31 02:04:32;;;;;;;1.07;1.07;;;14.60;47.20;;;;;;10390004;28;20254;-72
2023/10/31 02:09:35;;;;;;;1.30;1.20;;;14.50;47.60;;;;;;10386854;28;20218;-72
2023/10/31 02:14:38;;;;;;;0.90;0.90;;;14.50;47.20;;;;;;10388051;28;20829;-72
2023/10/31 02:19:42;;;;;;;0.90;0.90;;;14.50;47.20;;;;;;10392241;28;20227;-72
2023/10/31 02:24:47;;;;;;;0.60;0.60;;;14.60;47.60;;;;;;10393703;28;20265;-70
2023/10/31 02:29:50;;;;;;;0.60;0.60;;;14.50;47.70;;;;;;10390071;28;20222;-75
2023/10/31 02:34:53;;;;;;;1.40;0.80;;;14.50;47.10;;;;;;10387485;28;20268;-72
2023/10/31 02:39:58;;;;;;;0.77;0.77;;;14.50;47.40;;;;;;10391440;28;20222;-71
2023/10/31 02:45:01;;;;;;;0.83;0.83;;;14.40;47.40;;;;;;10392678;28;20596;-71
2023/10/31 02:50:06;;;;;;;0.80;0.80;;;14.40;47.30;;;;;;10389314;28;20692;-71
2023/10/31 02:55:10;;;;;;;1.63;1.27;;;14.40;47.30;;;;;;10391660;28;20283;-75
2023/10/31 03:00:14;;;;;;;0.80;0.80;;;14.30;47.60;;;;;;10397089;28;20603;-75
2023/10/31 03:05:18;;;;;;;0.70;0.70;;;14.40;47.40;;;;;;10397449;28;20626;-75
2023/10/31 03:10:23;;;;;;;0.80;0.80;;;14.30;47.30;;;;;;10395575;28;20600;-75
2023/10/31 03:15:27;;;;;;;0.97;0.80;;;14.30;47.70;;;;;;10393455;28;20241;-75
2023/10/31 03:20:31;;;;;;;0.60;0.60;;;14.20;47.40;;;;;;10394196;28;20905;-70
2023/10/31 03:25:35;;;;;;;0.83;0.83;;;14.20;47.60;;;;;;10397711;28;20229;-71
2023/10/31 03:30:38;;;;;;;0.73;0.73;;;14.20;48.10;;;;;;10397624;28;20222;-71
2023/10/31 03:35:42;;;;;;;0.70;0.70;;;14.20;47.90;;;;;;10395235;28;20697;-71
2023/10/31 03:40:46;;;;;;;1.00;0.83;;;14.10;47.90;;;;;;10392907;28;20727;-72
2023/10/31 03:45:49;;;;;;;1.17;0.80;;;14.10;48.20;;;;;;10398876;28;20249;-73
2023/10/31 03:50:53;;;;;;;1.43;0.80;;;14.10;48.60;;;;;;10400148;28;20234;-73
2023/10/31 03:56:00;;;;;;;0.73;0.73;;;14.10;47.70;;;;;;10389973;28;20246;-71
2023/10/31 04:01:03;;;;;;;0.80;0.80;;;14.20;48.40;;;;;;10390178;28;20336;-71
2023/10/31 04:06:07;;;;;;;1.20;1.10;;;14.20;47.60;;;;;;10396678;28;20599;-71
2023/10/31 04:11:11;;;;;;;0.97;0.97;;;14.20;47.60;;;;;;10387050;28;20223;-71
2023/10/31 04:16:14;;;;;;;0.77;0.70;;;14.20;47.70;;;;;;10387368;28;20234;-71
2023/10/31 04:21:17;;;;;;;0.60;0.60;;;14.10;47.30;;;;;;10392696;28;20226;-75
2023/10/31 04:26:22;;;;;;;0.83;0.80;;;14.10;47.20;;;;;;10395515;28;20237;-75
2023/10/31 04:31:25;;;;;;;0.70;0.70;;;14.10;47.40;;;;;;10391374;28;20715;-76
2023/10/31 04:36:43;;;;;;;1.00;0.90;;;14.10;47.20;;;;;;10391525;28;20237;-75
2023/10/31 04:41:48;;;;;;;0.93;0.90;;;14.00;47.00;;;;;;10389556;28;20804;-75
2023/10/31 04:46:51;;;;;;;0.80;0.80;;;13.90;47.50;;;;;;10391503;28;20276;-75
2023/10/31 04:51:54;;;;;;;1.37;0.80;;;13.90;47.40;;;;;;10397036;28;20724;-73
2023/10/31 04:56:59;;;;;;;0.70;0.60;;;13.90;47.40;;;;;;10392617;28;20308;-73
2023/10/31 05:02:02;;;;;;;1.20;1.10;;;13.90;47.90;;;;;;10384487;28;20225;-72
2023/10/31 05:07:05;;;;;;;2.33;0.90;;;13.90;47.40;;;;;;10392313;28;20241;-72
2023/10/31 05:12:10;;;;;;;0.90;0.90;;;13.90;47.50;;;;;;10392716;28;20236;-73
2023/10/31 05:17:13;;;;;;;0.90;0.90;;;13.90;48.10;;;;;;10385976;28;20247;-72
2023/10/31 05:22:17;;;;;;;2.00;0.83;;;13.80;47.70;;;;;;10377813;28;20261;-75
2023/10/31 05:27:21;;;;;;;0.80;0.80;;;13.70;47.70;;;;;;10387224;28;20233;-75
2023/10/31 05:32:24;;;;;;;1.00;0.97;;;13.80;48.30;;;;;;10388543;28;20672;-74
2023/10/31 05:37:28;;;;;;;0.80;0.77;;;13.80;47.90;;;;;;10383846;28;20762;-75
2023/10/31 05:42:32;;;;;;;2.00;1.10;;;13.80;47.90;;;;;;10390914;28;20234;-73
2023/10/31 05:47:35;;;;;;;2.53;1.30;;;13.80;48.10;;;;;;10386282;28;20233;-71
2023/10/31 05:52:38;;;;;;;1.60;1.10;;;13.80;47.70;;;;;;10387463;28;20225;-70
2023/10/31 05:57:43;;;;;;;2.30;2.10;;;13.80;47.80;;;;;;10390254;28;20284;-70
2023/10/31 06:02:46;;;;;;;3.10;2.80;;;13.70;47.90;;;;;;10397055;28;20657;-70
2023/10/31 06:07:49;;;;;;;2.30;1.87;;;13.70;47.70;;;;;;10395663;28;20748;-71
2023/10/31 06:12:54;;;;;;;1.40;1.30;;;13.70;47.80;;;;;;10391183;28;20311;-70
2023/10/31 06:17:57;;;;;;;1.50;1.40;;;13.80;48.10;;;;;;10391997;28;20218;-71
2023/10/31 06:23:01;;;;;;;1.50;1.40;;;13.70;47.70;;;;;;10394165;28;20229;-72
2023/10/31 06:28:05;;;;;;;1.60;1.20;;;13.70;47.90;;;;;;10382417;28;20222;-73
2023/10/31 06:33:10;;;;;;;1.57;1.47;;;13.70;48.40;;;;;;10396474;28;20232;-71
2023/10/31 06:38:14;;;;;;;1.87;1.77;;;13.60;48.00;;;;;;10406171;28;20548;-71
2023/10/31 06:43:18;;;;;;;1.60;1.50;;;13.60;48.10;;;;;;10397600;28;20769;-71
2023/10/31 06:48:21;;;;;;;2.10;1.90;;;13.60;48.30;;;;;;10398135;28;20329;-70
2023/10/31 06:53:25;;;;;;;1.77;1.60;;;13.70;48.20;;;;;;10388380;28;20234;-70
2023/10/31 06:58:29;;;;;;;1.50;1.40;;;13.70;48.10;;;;;;10394285;28;20320;-70
2023/10/31 07:03:33;;;;;;;1.53;1.43;;;13.70;48.20;;;;;;10392310;28;20235;-71
2023/10/31 07:08:36;;;;;;;0.97;0.90;;;13.60;47.80;;;;;;10387626;28;20222;-71
2023/10/31 07:13:40;;;;;;;0.70;0.70;;;13.60;47.90;;;;;;10393789;28;20254;-71
2023/10/31 07:18:44;;;;;;;0.93;0.90;;;13.60;47.90;;;;;;10392656;28;20306;-74
2023/10/31 07:23:47;;;;;;;0.70;0.70;;;13.60;47.70;;;;;;10397153;28;20226;-75
2023/10/31 07:28:52;;;;;;;0.73;0.70;;;13.60;47.80;;;;;;10399766;28;20704;-75
2023/10/31 07:33:56;;;;;;;0.60;0.60;;;13.60;48.10;;;;;;10397643;28;20704;-75
2023/10/31 07:38:59;;;;;;;0.90;0.80;;;13.60;47.90;;;;;;10396870;28;20229;-75
2023/10/31 07:44:04;;;;;;;1.70;0.87;;;13.60;47.80;;;;;;10394795;28;20629;-72
2023/10/31 07:49:07;;;;;;;1.40;0.83;;;13.60;48.20;;;;;;10394781;28;20333;-71
2023/10/31 07:54:10;;;;;;;1.00;0.80;;;13.60;47.80;;;;;;10395352;28;20233;-72
2023/10/31 07:59:15;;;;;;;0.90;0.90;;;13.70;47.90;;;;;;10390629;28;20308;-75
2023/10/31 08:04:18;;;;;;;0.80;0.80;;;13.60;47.90;;;;;;10396755;28;20283;-75
2023/10/31 08:09:22;;;;;;;1.47;0.90;;;13.60;47.90;;;;;;10396274;28;20255;-75
2023/10/31 08:14:26;;;;;;;1.27;1.03;;;13.70;47.90;;;;;;10393798;28;20320;-71
2023/10/31 08:19:29;;;;;;;1.00;0.90;;;13.70;48.20;;;;;;10399216;28;20230;-71
2023/10/31 08:24:34;;;;;;;0.90;0.90;;;13.70;47.80;;;;;;10388589;28;20329;-71
2023/10/31 08:29:39;;;;;;;1.03;0.80;;;13.80;48.00;;;;;;10399638;28;20222;-71
2023/10/31 08:34:42;;;;;;;0.70;0.70;;;13.80;48.20;;;;;;10390577;28;20222;-71
2023/10/31 08:39:45;;;;;;;0.70;0.70;;;13.80;48.20;;;;;;10401082;28;20254;-71
2023/10/31 08:44:49;;;;;;;1.53;0.73;;;13.90;48.10;;;;;;10392248;28;20255;-70
2023/10/31 08:49:55;;;;;;;1.00;0.60;;;14.00;48.20;;;;;;10390652;28;20300;-71
2023/10/31 08:54:58;;;;;;;0.80;0.80;;;14.10;47.70;;;;;;10393883;28;20227;-70
2023/10/31 09:00:04;;;;;;;1.00;0.90;;;14.10;47.50;;;;;;10389516;28;20232;-71
2023/10/31 09:05:08;;;;;;;1.80;0.90;;;14.10;47.60;;;;;;10394771;28;20693;-71
2023/10/31 09:10:13;;;;;;;1.23;0.80;;;14.10;47.40;;;;;;10397446;28;20283;-71
2023/10/31 09:15:18;;;;;;;0.93;0.93;;;14.10;47.40;;;;;;10391450;28;20238;-71
2023/10/31 09:20:21;;;;;;;1.00;1.00;;;14.10;47.70;;;;;;10390483;28;20236;-71
2023/10/31 09:25:25;;;;;;;1.90;0.90;;;14.10;47.60;;;;;;10395068;28;20230;-71
2023/10/31 09:30:29;;;;;;;1.00;1.00;;;14.10;47.40;;;;;;10391451;28;21213;-71
2023/10/31 09:35:32;;;;;;;1.50;1.40;;;14.10;47.30;;;;;;10391807;28;20313;-71
2023/10/31 09:40:37;;;;;;;1.00;1.00;;;14.10;47.10;;;;;;10393214;28;20225;-71
2023/10/31 09:45:42;;;;;;;1.20;1.10;;;14.20;46.90;;;;;;10391033;28;20324;-71
2023/10/31 09:50:46;;;;;;;1.50;1.40;;;14.20;46.80;;;;;;10392371;28;20279;-71
2023/10/31 09:55:50;;;;;;;1.23;1.13;;;14.20;46.80;;;;;;10391852;28;20222;-71
2023/10/31 10:00:56;;;;;;;1.30;1.20;;;14.30;46.80;;;;;;10392806;28;20279;-71
2023/10/31 10:05:59;;;;;;;1.57;1.20;;;14.20;46.80;;;;;;10400422;28;20324;-71
2023/10/31 10:11:02;;;;;;;1.30;1.20;;;14.20;46.80;;;;;;10398462;28;20680;-72
2023/10/31 10:16:08;;;;;;;1.57;1.40;;;14.30;46.80;;;;;;10399525;28;20230;-71
2023/10/31 10:21:11;;;;;;;1.53;1.07;;;14.30;46.60;;;;;;10397426;28;20249;-71
2023/10/31 10:26:14;;;;;;;1.20;1.10;;;14.40;46.80;;;;;;10398108;28;20263;-71
2023/10/31 10:31:19;;;;;;;1.80;1.30;;;14.40;46.60;;;;;;10399725;28;20727;-71
2023/10/31 10:36:26;;;;;;;2.17;1.10;;;14.50;46.50;;;;;;10392924;28;20679;-71
2023/10/31 10:41:30;;;;;;;2.00;1.20;;;14.50;46.20;;;;;;10400007;28;21206;-71
2023/10/31 10:46:36;;;;;;;2.20;1.30;;;14.50;46.50;;;;;;10402599;28;20409;-70
2023/10/31 10:51:52;;;;;;;1.60;1.40;;;14.50;45.90;;;;;;10403986;28;20630;-71
2023/10/31 10:57:00;;;;;;;1.07;0.97;;;14.60;45.80;;;;;;10393900;28;20328;-71
2023/10/31 11:02:07;;;;;;;0.80;0.80;;;14.60;46.30;;;;;;10391268;28;20308;-71
2023/10/31 11:07:11;;;;;;;1.10;0.80;;;14.60;45.70;;;;;;10400979;28;20730;-71
2023/10/31 11:12:15;;;;;;;3.23;2.10;;;14.60;45.50;;;;;;10396222;28;20232;-71
2023/10/31 11:17:26;;;;;;;1.40;1.20;;;14.60;45.80;;;;;;10388167;28;20235;-71
2023/10/31 11:22:39;;;;;;;1.63;1.00;;;14.60;45.70;;;;;;10396689;28;20264;-75
2023/10/31 11:27:42;;;;;;;0.80;0.80;;;14.60;45.60;;;;;;10399279;28;20217;-74
2023/10/31 11:32:50;;;;;;;2.03;1.70;;;14.60;45.80;;;;;;10396964;28;20229;-70
2023/10/31 11:38:03;;;;;;;2.00;1.30;;;14.60;45.60;;;;;;10398290;28;20225;-70
2023/10/31 11:43:08;;;;;;;4.27;1.23;;;14.60;45.10;;;;;;10397711;28;20700;-71
2023/10/31 11:48:12;;;;;;;1.77;1.00;;;14.60;45.30;;;;;;10393437;28;20277;-70
2023/10/31 11:53:16;;;;;;;3.00;1.10;;;14.60;45.10;;;;;;10395338;28;20230;-70
2023/10/31 11:58:21;;;;;;;1.50;1.03;;;14.60;45.30;;;;;;10393796;28;20321;-74
2023/10/31 12:03:26;;;;;;;1.67;1.40;;;14.70;45.10;;;;;;10398677;28;20237;-71
2023/10/31 12:08:31;;;;;;;5.10;4.37;;;14.80;44.60;;;;;;10391264;28;20313;-70
2023/10/31 12:13:35;;;;;;;2.40;1.73;;;14.80;44.20;;;;;;10396302;28;20240;-70
2023/10/31 12:18:40;;;;;;;3.27;2.93;;;14.90;44.30;;;;;;10393356;28;20228;-74
2023/10/31 12:23:44;;;;;;;6.73;5.00;;;14.90;44.30;;;;;;10394684;28;20229;-74
2023/10/31 12:28:47;;;;;;;1.60;1.40;;;15.00;44.40;;;;;;10394211;28;20228;-71
2023/10/31 12:33:53;;;;;;;1.43;1.30;;;15.10;44.40;;;;;;10394049;28;20599;-70
2023/10/31 12:38:57;;;;;;;1.60;0.90;;;15.10;44.30;;;;;;10396357;28;20348;-71
2023/10/31 12:44:02;;;;;;;1.57;1.10;;;15.20;44.50;;;;;;10393033;28;20237;-70
2023/10/31 12:49:13;;;;;;;1.50;0.90;;;15.30;44.30;;;;;;10392437;28;20225;-71
2023/10/31 12:54:28;;;;;;;1.77;0.90;;;15.30;43.30;;;;;;10395982;28;20239;-70
2023/10/31 12:59:32;;;;;;;1.27;0.80;;;15.40;42.70;;;;;;10391725;28;20228;-70
2023/10/31 13:04:37;;;;;;;1.27;1.00;;;15.40;43.90;;;;;;10395943;28;20229;-70
2023/10/31 13:09:42;;;;;;;2.13;1.33;;;15.50;43.40;;;;;;10392902;28;20244;-70
2023/10/31 13:14:46;;;;;;;2.83;1.70;;;15.60;44.00;;;;;;10391821;28;20226;-70
2023/10/31 13:19:51;;;;;;;1.10;1.07;;;15.60;43.90;;;;;;10393848;28;20224;-70
2023/10/31 13:24:54;;;;;;;2.33;1.07;;;15.70;43.40;;;;;;10390038;28;20229;-69
2023/10/31 13:29:57;;;;;;;1.20;0.90;;;15.70;43.60;;;;;;10387375;28;20218;-70
2023/10/31 13:35:02;;;;;;;2.53;1.00;;;15.80;43.60;;;;;;10395172;28;20641;-70
2023/10/31 13:40:08;;;;;;;1.67;1.30;;;15.80;43.20;;;;;;10384967;28;20226;-70
2023/10/31 13:45:11;;;;;;;4.23;1.40;;;15.80;43.40;;;;;;10384914;28;20218;-70
2023/10/31 13:50:16;;;;;;;4.03;1.80;;;15.80;43.30;;;;;;10391744;28;20312;-72
2023/10/31 13:55:20;;;;;;;3.20;1.60;;;15.80;42.90;;;;;;10390520;28;20233;-72
2023/10/31 14:00:23;;;;;;;3.53;1.40;;;15.80;43.30;;;;;;10386567;28;20744;-72
2023/10/31 14:05:27;;;;;;;1.87;1.23;;;15.80;43.20;;;;;;10392474;28;20229;-72
2023/10/31 14:10:31;;;;;;;2.53;1.50;;;15.80;42.70;;;;;;10390846;28;20716;-70
2023/10/31 14:15:34;;;;;;;2.10;1.50;;;15.70;42.90;;;;;;10393160;28;20225;-71
2023/10/31 14:20:39;;;;;;;1.53;1.20;;;15.70;43.10;;;;;;10388151;28;20322;-70
2023/10/31 14:25:42;;;;;;;2.87;1.10;;;15.70;42.90;;;;;;10384959;28;20233;-70
2023/10/31 14:30:46;;;;;;;2.43;1.30;;;15.70;43.10;;;;;;10393593;28;20237;-70
2023/10/31 14:35:50;;;;;;;3.60;2.00;;;15.70;43.00;;;;;;10386184;28;20867;-70
2023/10/31 14:40:54;;;;;;;2.77;1.23;;;15.60;42.80;;;;;;10391467;28;20272;-69
2023/10/31 14:45:58;;;;;;;1.70;1.23;;;15.60;43.20;;;;;;10385671;28;20249;-69
2023/10/31 14:51:02;;;;;;;2.10;1.53;;;15.60;43.50;;;;;;10389135;28;20272;-69
2023/10/31 14:56:08;;;;;;;3.50;2.23;;;15.60;43.30;;;;;;10393010;28;20578;-70
2023/10/31 15:01:11;;;;;;;2.20;1.33;;;15.70;43.20;;;;;;10401917;28;20226;-70
2023/10/31 15:06:16;;;;;;;2.47;1.60;;;15.70;43.20;;;;;;10394079;28;20237;-70
2023/10/31 15:11:19;;;;;;;3.20;1.40;;;15.70;42.80;;;;;;10393752;28;20263;-70
2023/10/31 15:16:22;;;;;;;1.10;1.00;;;15.70;43.10;;;;;;10399201;28;20253;-70
2023/10/31 15:21:27;;;;;;;1.40;1.30;;;15.60;43.20;;;;;;10393447;28;20329;-70
2023/10/31 15:26:30;;;;;;;1.70;1.60;;;15.60;43.20;;;;;;10399560;28;20257;-69
2023/10/31 15:31:33;;;;;;;3.67;2.00;;;15.50;43.20;;;;;;10384859;28;20230;-70
2023/10/31 15:36:38;;;;;;;2.47;2.23;;;15.50;43.30;;;;;;10395661;28;20240;-70
2023/10/31 15:41:41;;;;;;;9.80;7.67;;;15.40;43.20;;;;;;10385131;28;20226;-70
2023/10/31 15:46:44;;;;;;;4.03;2.33;;;15.50;43.50;;;;;;10394619;28;20237;-70
2023/10/31 15:51:49;;;;;;;3.33;1.70;;;15.40;43.60;;;;;;10393448;28;20603;-70
2023/10/31 15:56:52;;;;;;;1.23;1.10;;;15.40;43.60;;;;;;10395515;28;20241;-70
2023/10/31 16:01:56;;;;;;;1.23;1.17;;;15.30;43.70;;;;;;10390438;28;20729;-70
2023/10/31 16:07:01;;;;;;;2.30;2.10;;;15.30;43.80;;;;;;10398734;28;20225;-70
2023/10/31 16:12:06;;;;;;;3.97;3.30;;;15.30;43.90;;;;;;10384745;28;20222;-70
2023/10/31 16:17:10;;;;;;;2.63;2.43;;;15.30;43.90;;;;;;10392719;28;20672;-70
2023/10/31 16:22:14;;;;;;;3.47;3.17;;;15.20;44.10;;;;;;10389295;28;20232;-70
2023/10/31 16:27:17;;;;;;;4.70;4.30;;;15.20;44.50;;;;;;10393656;28;20244;-70
2023/10/31 16:32:21;;;;;;;2.83;2.63;;;15.10;44.40;;;;;;10397610;28;20225;-69
2023/10/31 16:37:25;;;;;;;2.90;2.70;;;15.10;44.40;;;;;;10393340;28;20261;-69
2023/10/31 16:42:32;;;;;;;3.00;2.70;;;15.10;44.40;;;;;;10392823;28;20694;-69
2023/10/31 16:47:35;;;;;;;2.87;2.13;;;15.10;44.40;;;;;;10389019;28;20232;-70
2023/10/31 16:52:40;;;;;;;1.90;1.70;;;15.20;44.50;;;;;;10386177;28;20295;-69
2023/10/31 16:57:43;;;;;;;2.10;1.90;;;15.10;44.40;;;;;;10394664;28;20257;-70
2023/10/31 17:02:46;;;;;;;2.30;2.10;;;15.00;44.30;;;;;;10399239;28;20237;-70
2023/10/31 17:07:52;;;;;;;2.00;1.87;;;15.00;44.40;;;;;;10388412;28;20230;-69
2023/10/31 17:12:55;;;;;;;2.20;2.00;;;14.90;45.00;;;;;;10394505;28;20225;-70
2023/10/31 17:18:00;;;;;;;3.27;2.50;;;14.90;44.70;;;;;;10387693;28;20226;-70
2023/10/31 17:23:05;;;;;;;4.33;3.93;;;14.90;44.80;;;;;;10389881;28;20257;-70
2023/10/31 17:28:08;;;;;;;4.77;4.27;;;14.80;45.10;;;;;;10391977;28;21042;-71
2023/10/31 17:33:13;;;;;;;4.43;4.03;;;14.80;45.00;;;;;;10383826;28;20312;-70
2023/10/31 17:38:22;;;;;;;3.80;3.50;;;14.70;45.20;;;;;;10394598;28;20762;-70
2023/10/31 17:43:25;;;;;;;3.20;2.90;;;14.70;45.50;;;;;;10394054;28;20299;-70
2023/10/31 17:48:29;;;;;;;4.13;3.53;;;14.60;45.20;;;;;;10390428;28;20230;-70
2023/10/31 17:53:33;;;;;;;4.97;4.47;;;14.60;45.30;;;;;;10392418;28;20232;-70
2023/10/31 17:58:36;;;;;;;3.67;3.13;;;14.50;45.70;;;;;;10392364;28;20300;-70
2023/10/31 18:03:40;;;;;;;4.27;2.70;;;14.40;45.50;;;;;;10390846;28;20236;-70
2023/10/31 18:08:44;;;;;;;3.37;2.50;;;14.40;45.70;;;;;;10395223;28;20711;-70
2023/10/31 18:13:47;;;;;;;3.23;2.93;;;14.30;46.10;;;;;;10388621;28;20741;-70
2023/10/31 18:18:51;;;;;;;2.97;2.70;;;14.30;46.00;;;;;;10395721;28;20229;-70
2023/10/31 18:23:56;;;;;;;2.33;2.13;;;14.20;46.00;;;;;;10393501;28;20226;-70
2023/10/31 18:28:59;;;;;;;2.13;1.93;;;14.20;46.50;;;;;;10386137;28;20220;-71
2023/10/31 18:34:03;;;;;;;2.27;2.03;;;14.20;46.30;;;;;;10382913;28;20221;-71
2023/10/31 18:39:08;;;;;;;2.37;2.17;;;14.20;46.40;;;;;;10401986;28;20230;-71
2023/10/31 18:44:11;;;;;;;3.70;2.80;;;14.20;47.60;;;;;;10401380;28;20600;-71
2023/10/31 18:49:34;;;;;;;2.87;2.60;;;14.20;46.40;;;;;;10398895;28;20232;-71
2023/10/31 18:54:38;;;;;;;3.10;2.03;;;14.20;46.50;;;;;;10399251;28;20229;-71
2023/10/31 18:59:41;;;;;;;2.00;1.80;;;14.20;47.40;;;;;;10398825;28;20234;-71
2023/10/31 19:04:45;;;;;;;2.00;1.67;;;14.20;46.30;;;;;;10384810;28;20391;-70
2023/10/31 19:09:49;;;;;;;1.50;1.40;;;14.20;46.20;;;;;;10403410;28;20245;-70
2023/10/31 19:14:52;;;;;;;2.50;1.60;;;14.20;46.50;;;;;;10401550;28;20601;-71
2023/10/31 19:19:55;;;;;;;1.63;1.40;;;14.30;46.30;;;;;;10395077;28;20235;-71
2023/10/31 19:25:00;;;;;;;1.73;1.63;;;14.30;46.30;;;;;;10389071;28;20662;-71
2023/10/31 19:30:03;;;;;;;1.83;1.40;;;14.40;46.40;;;;;;10395504;28;20764;-71
2023/10/31 19:35:08;;;;;;;3.50;1.90;;;14.40;46.10;;;;;;10397808;28;20229;-71
2023/10/31 19:40:14;;;;;;;1.63;1.53;;;14.30;46.10;;;;;;10394428;28;20234;-71
2023/10/31 19:45:17;;;;;;;3.17;1.70;;;14.30;46.40;;;;;;10394894;28;20712;-71
2023/10/31 19:50:21;;;;;;;1.90;1.80;;;14.30;46.20;;;;;;10384584;28;20313;-71
2023/10/31 19:55:26;;;;;;;2.13;1.73;;;14.20;46.20;;;;;;10387242;28;20233;-71
2023/10/31 20:00:29;;;;;;;1.73;1.63;;;14.20;46.70;;;;;;10386894;28;20238;-71
2023/10/31 20:05:32;;;;;;;2.20;2.00;;;14.10;46.40;;;;;;10399020;28;20455;-71
2023/10/31 20:10:37;;;;;;;2.77;2.57;;;14.10;46.40;;;;;;10395484;28;20269;-71
2023/10/31 20:15:42;;;;;;;2.83;2.27;;;14.10;46.70;;;;;;10395532;28;20348;-71
2023/10/31 20:20:45;;;;;;;1.80;1.70;;;14.10;46.60;;;;;;10396980;28;20263;-71
2023/10/31 20:25:51;;;;;;;2.20;1.83;;;14.00;46.60;;;;;;10393161;28;20276;-71
2023/10/31 20:30:54;;;;;;;2.00;1.90;;;14.00;46.90;;;;;;10394227;28;20710;-71
2023/10/31 20:35:57;;;;;;;1.80;1.70;;;14.00;46.60;;;;;;10394351;28;20323;-71
2023/10/31 20:41:02;;;;;;;2.50;1.97;;;14.00;46.70;;;;;;10397475;28;20237;-71
2023/10/31 20:46:06;;;;;;;3.20;1.77;;;14.00;46.90;;;;;;10391758;28;20937;-71
2023/10/31 20:51:09;;;;;;;1.67;1.57;;;14.00;46.90;;;;;;10397830;28;20272;-71
2023/10/31 20:56:13;;;;;;;1.70;1.60;;;13.90;46.90;;;;;;10394934;28;20934;-71
2023/10/31 21:01:17;;;;;;;1.97;1.73;;;13.90;47.20;;;;;;10388506;28;20664;-71
2023/10/31 21:06:21;;;;;;;1.40;1.30;;;14.00;46.90;;;;;;10398570;28;20781;-71
2023/10/31 21:11:25;;;;;;;1.50;1.40;;;14.00;46.90;;;;;;10393202;28;20257;-71
2023/10/31 21:16:28;;;;;;;1.40;1.30;;;14.00;46.90;;;;;;10396386;28;20264;-71
2023/10/31 21:21:32;;;;;;;1.57;1.47;;;14.10;46.80;;;;;;10394054;28;20328;-71
2023/10/31 21:26:36;;;;;;;1.30;1.20;;;14.10;46.50;;;;;;10390652;28;20233;-71
2023/10/31 21:31:40;;;;;;;1.00;1.00;;;14.10;46.60;;;;;;10391501;28;20796;-71
2023/10/31 21:36:43;;;;;;;1.10;1.10;;;14.10;46.50;;;;;;10391278;28;20734;-71
2023/10/31 21:41:48;;;;;;;1.40;1.30;;;14.10;46.50;;;;;;10387346;28;20234;-71
2023/10/31 21:46:52;;;;;;;1.63;1.10;;;14.10;46.60;;;;;;10388588;28;20237;-71
2023/10/31 21:51:57;;;;;;;1.17;1.17;;;14.10;46.40;;;;;;10396146;28;20226;-71
2023/10/31 21:57:02;;;;;;;1.03;1.03;;;14.10;46.50;;;;;;10391348;28;20218;-71
2023/10/31 22:02:06;;;;;;;1.20;1.10;;;14.10;46.50;;;;;;10393065;28;20233;-71
2023/10/31 22:07:09;;;;;;;0.80;0.80;;;14.10;46.30;;;;;;10390780;28;20233;-71
2023/10/31 22:12:14;;;;;;;0.90;0.90;;;14.10;47.00;;;;;;10379926;28;20303;-71
2023/10/31 22:17:17;;;;;;;1.67;1.07;;;14.00;46.40;;;;;;10383925;28;20221;-71
2023/10/31 22:22:20;;;;;;;1.00;0.90;;;14.00;46.20;;;;;;10386848;28;20230;-71
2023/10/31 22:27:25;;;;;;;1.10;1.00;;;13.90;46.20;;;;;;10393954;28;20848;-71
2023/10/31 22:32:28;;;;;;;1.53;0.97;;;13.80;46.40;;;;;;10392084;28;20668;-70
2023/10/31 22:37:34;;;;;;;1.30;1.20;;;13.80;46.20;;;;;;10393205;28;20236;-71
2023/10/31 22:42:39;;;;;;;1.17;1.17;;;13.70;46.30;;;;;;10394399;28;20368;-70
2023/10/31 22:47:42;;;;;;;1.10;1.00;;;13.60;46.30;;;;;;10382508;28;20249;-71
2023/10/31 22:52:45;;;;;;;1.17;1.07;;;13.60;46.30;;;;;;10389581;28;20229;-71
2023/10/31 22:57:50;;;;;;;1.20;1.10;;;13.60;46.30;;;;;;10387222;28;20595;-71
2023/10/31 23:02:53;;;;;;;1.23;1.13;;;13.50;46.30;;;;;;10385273;28;20245;-70
2023/10/31 23:07:56;;;;;;;1.17;1.17;;;13.50;46.20;;;;;;10383893;28;20225;-71
2023/10/31 23:13:01;;;;;;;1.47;1.03;;;13.40;46.10;;;;;;10384181;28;20328;-70
2023/10/31 23:18:05;;;;;;;1.17;1.07;;;13.50;46.50;;;;;;10400008;28;20676;-71
2023/10/31 23:23:09;;;;;;;2.63;2.40;;;13.40;46.40;;;;;;10399710;28;20229;-71
2023/10/31 23:28:14;;;;;;;2.80;1.70;;;13.40;46.40;;;;;;10395845;28;20353;-71
2023/10/31 23:33:18;;;;;;;1.60;1.50;;;13.40;46.60;;;;;;10391453;28;20235;-71
2023/10/31 23:38:21;;;;;;;1.20;1.10;;;13.40;46.60;;;;;;10391274;28;20694;-71
2023/10/31 23:43:26;;;;;;;2.07;1.10;;;13.40;46.70;;;;;;10395948;28;20226;-71
2023/10/31 23:48:29;;;;;;;0.97;0.97;;;13.40;46.80;;;;;;10390649;28;20681;-70
2023/10/31 23:53:32;;;;;;;1.37;1.10;;;13.40;46.80;;;;;;10390800;28;20230;-70
2023/10/31 23:58:37;;;;;;;1.30;1.10;;;13.40;46.70;;;;;;10399075;28;20226;-70
